createdAt,value
2022-12-04T00:02:00.525Z,58.47
2022-12-04T00:07:06.162Z,56.57
2022-12-04T00:12:11.629Z,50.00
2022-12-04T00:17:17.222Z,68.23
2022-12-04T00:22:23.109Z,58.57
2022-12-04T00:27:28.572Z,55.93
2022-12-04T00:32:33.980Z,53.47
2022-12-04T00:37:39.436Z,54.73
2022-12-04T00:42:44.919Z,54.03
2022-12-04T00:47:50.330Z,54.43
2022-12-04T00:52:56.386Z,53.37
2022-12-04T00:58:01.795Z,55.17
2022-12-04T01:03:08.532Z,57.37
2022-12-04T01:08:14.590Z,62.90
2022-12-04T01:13:20.492Z,54.63
2022-12-04T01:18:25.999Z,55.37
2022-12-04T01:23:31.393Z,53.10
2022-12-04T01:28:37.028Z,57.93
2022-12-04T01:33:43.261Z,55.53
2022-12-04T01:38:48.827Z,58.67
2022-12-04T01:44:27.090Z,55.17
2022-12-04T01:49:47.757Z,51.27
2022-12-04T01:54:58.906Z,60.37
2022-12-04T02:00:07.340Z,53.80
2022-12-04T02:05:15.777Z,58.00
2022-12-04T02:10:24.796Z,52.43
2022-12-04T02:15:39.054Z,55.77
2022-12-04T02:20:59.562Z,58.80
2022-12-04T02:26:13.812Z,61.30
2022-12-04T02:31:22.294Z,60.87
2022-12-04T02:36:30.762Z,58.33
2022-12-04T02:41:39.265Z,58.97
2022-12-04T02:46:48.086Z,55.43
2022-12-04T02:51:56.065Z,56.43
2022-12-04T02:57:04.537Z,62.73
2022-12-04T03:02:28.282Z,54.47
2022-12-04T03:07:36.801Z,55.13
2022-12-04T03:12:46.035Z,59.73
2022-12-04T03:18:00.039Z,54.80
2022-12-04T03:23:11.402Z,55.40
2022-12-04T03:28:19.846Z,58.57
2022-12-04T03:33:31.382Z,58.20
2022-12-04T03:38:51.896Z,51.87
2022-12-04T03:44:15.562Z,51.53
2022-12-04T03:49:24.000Z,56.47
2022-12-04T03:54:35.371Z,55.90
2022-12-04T03:59:43.804Z,67.97
2022-12-04T04:04:52.500Z,53.67
2022-12-04T04:10:01.391Z,60.43
2022-12-04T04:15:30.692Z,60.60
2022-12-04T04:21:05.698Z,58.23
2022-12-04T04:26:14.116Z,59.80
2022-12-04T04:31:49.815Z,54.67
2022-12-04T04:37:04.213Z,66.70
2022-12-04T04:42:15.342Z,60.07
2022-12-04T04:47:23.839Z,58.43
2022-12-04T04:52:29.972Z,57.40
2022-12-04T04:57:37.458Z,54.60
2022-12-04T05:02:43.324Z,59.77
2022-12-04T05:07:49.043Z,55.93
2022-12-04T05:12:54.697Z,54.03
2022-12-04T05:18:00.089Z,57.03
2022-12-04T05:23:05.479Z,64.03
2022-12-04T05:28:11.234Z,63.77
2022-12-04T05:33:16.764Z,55.93
2022-12-04T05:38:22.173Z,57.90
2022-12-04T05:43:27.936Z,51.13
2022-12-04T05:48:34.841Z,66.23
2022-12-04T05:53:40.291Z,51.67
2022-12-04T05:58:45.762Z,55.07
2022-12-04T06:03:51.316Z,52.20
2022-12-04T06:08:58.864Z,51.93
2022-12-04T06:14:06.488Z,49.47
2022-12-04T06:19:14.918Z,43.73
2022-12-04T06:24:25.591Z,50.10
2022-12-04T06:29:31.141Z,49.67
2022-12-04T06:34:37.218Z,49.03
2022-12-04T06:39:42.706Z,47.97
2022-12-04T06:44:48.676Z,51.07
2022-12-04T06:49:54.671Z,49.50
2022-12-04T06:55:01.176Z,44.27
2022-12-04T07:00:07.827Z,43.47
2022-12-04T07:05:13.351Z,46.43
2022-12-04T07:10:18.876Z,45.60
2022-12-04T07:15:24.357Z,45.67
2022-12-04T07:20:30.220Z,52.37
2022-12-04T07:25:37.192Z,45.70
2022-12-04T07:30:42.747Z,42.07
2022-12-04T07:35:51.200Z,45.10
2022-12-04T07:41:01.264Z,45.10
2022-12-04T07:46:15.798Z,42.53
2022-12-04T07:51:23.971Z,49.23
2022-12-04T07:56:29.428Z,41.43
2022-12-04T08:01:35.053Z,45.63
2022-12-04T08:06:41.021Z,47.45
2022-12-04T08:11:46.468Z,47.63
2022-12-04T08:16:53.062Z,49.50
2022-12-04T08:21:58.699Z,45.03
2022-12-04T08:27:04.101Z,42.67
2022-12-04T08:32:09.731Z,47.33
2022-12-04T08:37:15.195Z,45.77
2022-12-04T08:42:20.593Z,39.67
2022-12-04T08:47:25.996Z,42.20
2022-12-04T08:52:32.340Z,43.67
2022-12-04T08:57:37.791Z,47.13
2022-12-04T09:02:43.327Z,42.67
2022-12-04T09:07:48.934Z,38.57
2022-12-04T09:12:54.495Z,43.80
2022-12-04T09:18:00.535Z,43.65
2022-12-04T09:23:06.561Z,47.27
2022-12-04T09:28:11.968Z,48.97
2022-12-04T09:33:17.528Z,45.93
2022-12-04T09:38:23.082Z,38.40
2022-12-04T09:43:31.584Z,48.13
2022-12-04T09:48:40.040Z,43.23
2022-12-04T09:54:00.409Z,46.77
2022-12-04T09:59:17.781Z,40.33
2022-12-04T10:04:23.493Z,45.63
2022-12-04T10:09:32.049Z,42.60
2022-12-04T10:14:43.621Z,44.20
2022-12-04T10:20:06.408Z,53.65
2022-12-04T10:25:23.866Z,46.47
2022-12-04T10:30:32.386Z,43.40
2022-12-04T10:35:40.961Z,48.37
2022-12-04T10:40:49.426Z,51.80
2022-12-04T10:45:54.894Z,55.60
2022-12-04T10:51:00.617Z,43.70
2022-12-04T10:56:18.216Z,52.07
2022-12-04T11:01:24.430Z,53.47
2022-12-04T11:06:30.787Z,53.63
2022-12-04T11:11:39.019Z,53.23
2022-12-04T11:16:49.260Z,55.23
2022-12-04T11:21:58.160Z,58.13
2022-12-04T11:27:06.439Z,58.03
2022-12-04T11:32:27.408Z,56.27
2022-12-04T11:37:39.229Z,51.80
2022-12-04T11:42:42.920Z,56.20
2022-12-04T11:48:00.398Z,56.20
2022-12-04T11:53:15.238Z,54.87
2022-12-04T11:58:39.051Z,49.23
2022-12-04T12:04:04.389Z,55.53
2022-12-04T12:09:27.991Z,53.37
2022-12-04T12:14:52.910Z,55.70
2022-12-04T12:20:26.904Z,52.07
2022-12-04T12:25:37.897Z,49.63
2022-12-04T12:31:05.975Z,48.73
2022-12-04T12:36:13.215Z,51.57
2022-12-04T12:41:27.489Z,55.20
2022-12-04T12:46:46.440Z,47.13
2022-12-04T12:52:09.777Z,52.30
2022-12-04T12:57:21.352Z,61.60
2022-12-04T13:02:35.867Z,53.83
2022-12-04T13:07:59.599Z,54.50
2022-12-04T13:13:10.966Z,55.90
2022-12-04T13:18:22.340Z,47.10
2022-12-04T13:23:48.729Z,51.77
2022-12-04T13:29:15.088Z,62.97
2022-12-04T13:34:26.400Z,55.83
2022-12-04T13:40:09.599Z,53.60
2022-12-04T13:45:30.122Z,55.83
2022-12-04T13:50:38.051Z,58.43
2022-12-04T13:55:43.454Z,60.53
2022-12-04T14:00:49.329Z,59.33
2022-12-04T14:05:55.609Z,62.23
2022-12-04T14:11:18.992Z,62.43
2022-12-04T14:16:33.098Z,57.93
2022-12-04T14:21:44.979Z,63.87
2022-12-04T14:32:08.517Z,58.43
2022-12-04T14:37:28.632Z,75.27
2022-12-04T14:42:41.414Z,62.17
2022-12-04T14:48:06.470Z,67.37
2022-12-04T14:53:26.722Z,65.10
2022-12-04T14:58:34.892Z,68.60
2022-12-04T15:03:43.564Z,57.57
2022-12-04T15:08:56.841Z,62.33
2022-12-04T15:14:08.117Z,69.47
2022-12-04T15:19:21.064Z,64.10
2022-12-04T15:24:27.598Z,62.87
2022-12-04T15:29:37.553Z,60.77
2022-12-04T15:34:46.798Z,64.33
2022-12-04T15:39:53.322Z,75.20
2022-12-04T15:45:04.099Z,69.67
2022-12-04T15:50:17.985Z,61.37
2022-12-04T15:55:25.729Z,71.27
2022-12-04T16:00:39.889Z,66.30
2022-12-04T16:05:45.646Z,69.03
2022-12-04T16:11:06.226Z,68.10
2022-12-04T16:16:21.048Z,69.87
2022-12-04T16:21:29.828Z,58.13
2022-12-04T16:26:35.807Z,53.20
2022-12-04T16:31:41.728Z,48.90
2022-12-04T16:36:47.231Z,58.43
2022-12-04T16:41:52.684Z,59.90
2022-12-04T16:46:58.331Z,62.40
2022-12-04T16:52:04.223Z,59.83
2022-12-04T16:57:10.844Z,63.67
2022-12-04T17:02:19.369Z,67.20
2022-12-04T17:07:24.842Z,63.80
2022-12-04T17:12:30.463Z,57.43
2022-12-04T17:17:35.937Z,68.67
2022-12-04T17:22:41.833Z,56.77
2022-12-04T17:27:47.318Z,67.53
2022-12-04T17:32:52.894Z,73.70
2022-12-04T17:38:03.804Z,63.17
2022-12-04T17:43:06.425Z,55.40
2022-12-04T17:48:11.889Z,60.67
2022-12-04T17:53:17.362Z,55.77
2022-12-04T17:58:22.759Z,62.00
2022-12-04T18:03:29.405Z,51.73
2022-12-04T18:08:34.904Z,57.97
2022-12-04T18:13:40.684Z,61.10
2022-12-04T18:18:50.844Z,49.53
2022-12-04T18:24:04.022Z,58.40
2022-12-04T18:29:11.759Z,54.20
2022-12-04T18:34:17.597Z,58.77
2022-12-04T18:39:24.813Z,59.70
2022-12-04T18:44:30.272Z,57.57
2022-12-04T18:49:35.734Z,55.00
2022-12-04T18:54:41.195Z,57.07
2022-12-04T18:59:46.663Z,60.73
2022-12-04T19:04:52.184Z,58.17
2022-12-04T19:10:12.994Z,55.40
2022-12-04T19:15:05.153Z,57.30
2022-12-04T19:20:11.460Z,60.37
2022-12-04T19:25:17.195Z,60.03
2022-12-04T19:30:22.628Z,54.83
2022-12-04T19:35:28.613Z,57.27
2022-12-04T19:40:34.011Z,46.90
2022-12-04T19:45:39.931Z,49.17
2022-12-04T19:50:45.430Z,48.67
2022-12-04T19:55:50.823Z,51.67
2022-12-04T20:00:57.041Z,51.37
2022-12-04T20:06:07.578Z,57.00
2022-12-04T20:11:18.188Z,57.70
2022-12-04T20:16:25.421Z,49.60
2022-12-04T20:21:32.517Z,54.43
2022-12-04T20:26:40.042Z,42.93
2022-12-04T20:31:47.653Z,52.00
2022-12-04T20:36:53.361Z,56.63
2022-12-04T20:42:00.524Z,58.47
2022-12-04T20:47:05.980Z,53.80
2022-12-04T20:52:11.958Z,54.77
2022-12-04T20:57:17.440Z,55.73
2022-12-04T21:02:22.913Z,50.23
2022-12-04T21:07:28.375Z,48.53
2022-12-04T21:12:52.682Z,54.43
2022-12-04T21:17:59.601Z,58.63
2022-12-04T21:23:05.012Z,50.67
2022-12-04T21:28:10.441Z,54.97
2022-12-04T21:33:16.596Z,47.17
2022-12-04T21:38:22.259Z,49.67
2022-12-04T21:43:29.760Z,47.37
2022-12-04T21:48:38.202Z,48.53
2022-12-04T21:53:43.683Z,49.13
2022-12-04T21:58:49.195Z,46.90
2022-12-04T22:03:56.567Z,42.10
2022-12-04T22:09:02.140Z,45.57
2022-12-04T22:14:08.578Z,52.87
2022-12-04T22:19:14.399Z,46.13
2022-12-04T22:24:19.787Z,47.73
2022-12-04T22:34:32.344Z,46.27
2022-12-04T22:39:37.819Z,46.83
2022-12-04T22:44:43.290Z,44.50
2022-12-04T22:49:48.708Z,48.07
2022-12-04T22:54:54.238Z,43.50
2022-12-04T22:59:59.860Z,43.40
2022-12-04T23:05:05.921Z,45.87
2022-12-04T23:10:11.596Z,43.40
2022-12-04T23:15:17.146Z,44.67
2022-12-04T23:20:22.539Z,39.83
2022-12-04T23:25:28.467Z,43.27
2022-12-04T23:30:36.583Z,38.23
2022-12-04T23:35:41.176Z,44.07
2022-12-04T23:40:46.888Z,39.90
2022-12-04T23:45:52.274Z,42.17
2022-12-04T23:50:57.768Z,45.43
2022-12-04T23:56:12.414Z,38.17
